Detall de PIREP

Printer-friendly versionPDF version

[2012/11/01 11:38:00]
Flight IATA:CT0001
Pilot Number:012
Company ICAO:CAT
Aircraft Type:A343/E
PAX:295
Departing Airport: LEPA
Destination Airport: LERS
Alternate Airport:LEPA
Online: VATSIM
Route:DRAGO A29 PAPOS R80 EBROX
Flight Level:F180
No Slew and time accel
No pause
Crash detect
Detect pilot in Cockpit between each 30 and 45 minutes
11:38 Zero fuel Weight: 346331 Lbs, Fuel Weight: 78772 Lbs
11:38 VATSIM:LEPA 011030Z 26016KT 9999 FEW020 19/10 Q1002 NOSIG
11:38 VATSIM:LERS 011030Z 27017KT 250V320 9999 FEW030 17/03 Q1000
11:38 VOICE CATALONIAN
11:46 Parking Brakes off
11:52 Take-off
11:52 Take off Weight: 423563 Lbs
11:52 Wind: 252º @ 017 Knots Heading: 237º
11:52 POS N39º 33´ 13´´ E002º 43´ 30´´
11:52 Gear Up: 190 Knots
11:52 Flaps:2 at 190 Knots
11:52 Flaps:1 at 209 Knots
11:52 Flaps:0 at 225 Knots
11:57 TOC
11:57 Fuel Weight: 74182 Lb
12:06 TOD
12:06Fuel Weight: 71843 Lb
12:07 Wind:269º@052 Knots Heading: 331º Ground Speed: 356 Knots Altitude 16886 ft
12:17 Flaps:1 at 247 Knots
12:19 Flaps:3 at 168 Knots
12:19 Flaps:4 at 150 Knots
12:19 Flaps:5 at 146 Knots
12:22 Wind:261º@012 Knots Heading: 344º Ground Speed: 155 Knots Altitude 3687 ft
12:22 Gear Down: 137 Knots
12:28 TouchDown:Rate -134 ft/min Speed: 133 Knots
12:28 VATSIM:LERS 011130Z 28018KT 250V310 9999 FEW030 17/04 Q1001
12:28 Land
12:28 Wind:264º@013 Knots
12:28 Heading: 246º
12:28 Flight Duration: 00:36
12:28 Landing Weight: 415145 Lbs
12:28 POS N41º 08´ 53´´ E001º 10´ 09´´
12:30 Parking brakes on
12:30 Block to Block Duration: 00:44
12:30 Final Fuel: 68512 Lbls
12:30 Spent Fuel: 10260 Lbls
12:30 Flight Length: 162 NM
12:30 TOD Land Length: 81 NM

Exportar CSV

Powered by Drupal - Modified by Danger4k